Kenneth Carl — WDF8246 — position and weather

sailwx.info

Track history (hours):
 
Tides and Currents Weather Stations Pressure Air Temp Water Temp Dewpoint Dewpoint Depression Visibility Wind Speed Wind Dir Waves Ship Positions

Kenneth Carl

Owner: So. Cal. Ship Services, Inc., San Pedro, CA. More information available from US FCC via Universal Licensing System and Coast Guard Vessel Documentation Center.

Last reported at 2014-Oct-01 05:33 UTC. Time now 2014-Oct-01 06:06 UTC.
Position N 33°35' W 118°08'.

Length 31 m; draft 3 m.

Type: Ship. MMSI: 367492920.

Date/timePositionNaut miles runAvg speedWind from/ knotsBaromVisibWave heightAir tempDewpointWater temp
2014-Oct-01 05:33N 33°35' W 118°08'0 0.0
2014-Oct-01 04:33N 33°35' W 118°08'0 0.2
2014-Oct-01 03:33N 33°35' W 118°08'4 4.3
2014-Oct-01 02:33N 33°38' W 118°11'7 7.3
2014-Oct-01 01:33N 33°44' W 118°16'1 0.7
2014-Oct-01 00:32N 33°43' W 118°16'9 9.2
2014-Sep-30 23:33N 33°37' W 118°09'2 1.9
2014-Sep-30 22:33N 33°35' W 118°08'0 0.1
2014-Sep-30 21:33N 33°35' W 118°08'1 1.1
2014-Sep-30 20:33N 33°34' W 118°07'0 0.2
2014-Sep-30 19:33N 33°34' W 118°07'0 0.0
2014-Sep-30 18:33N 33°34' W 118°07'12 5.1
2014-Sep-30 16:14N 33°43' W 118°16'1 0.6
2014-Sep-30 14:33N 33°44' W 118°16'0 0.0
2014-Sep-30 13:33N 33°44' W 118°16'0 0.0
2014-Sep-30 12:33N 33°44' W 118°16'4 3.9
2014-Sep-30 11:33N 33°41' W 118°13'8 3.8
2014-Sep-30 09:33N 33°35' W 118°08'0 0.1
2014-Sep-30 08:30N 33°35' W 118°08'0 0.0
2014-Sep-30 07:33N 33°35' W 118°08'1 1.2
2014-Sep-30 06:33N 33°34' W 118°07'1 1.2
2014-Sep-30 05:33N 33°35' W 118°08'0 0.0
2014-Sep-30 03:33N 33°35' W 118°08'7 6.6
2014-Sep-30 02:30N 33°40' W 118°13'5 5.0
2014-Sep-30 01:33N 33°44' W 118°16'0 0.0
2014-Sep-30 00:33N 33°44' W 118°16'1 0.5
2014-Sep-29 23:32N 33°44' W 118°16'9 9.3
2014-Sep-29 22:33N 33°37' W 118°09'2 2.1
2014-Sep-29 21:32N 33°35' W 118°08'0 0.0
2014-Sep-29 20:19N 33°35' W 118°08'11 2.7
2014-Sep-29 16:15N 33°43' W 118°16'1 0.9
2014-Sep-29 15:30N 33°44' W 118°16'0 0.4
2014-Sep-29 14:33N 33°44' W 118°16'0 0.1
2014-Sep-29 08:31N 33°44' W 118°16'2 2.5
2014-Sep-29 07:32N 33°42' W 118°15'2 0.4
2014-Sep-29 01:23N 33°44' W 118°16'0 0.4
2014-Sep-29 00:28N 33°44' W 118°16'2 0.3
2014-Sep-28 17:12N 33°42' W 118°15'2 1.2
2014-Sep-28 15:33N 33°44' W 118°16'0 0.0
2014-Sep-28 14:15N 33°44' W 118°16'0 0.0
2014-Sep-28 13:28N 33°44' W 118°16'0 0.0
2014-Sep-28 11:21N 33°44' W 118°16'0 0.0
2014-Sep-28 10:31N 33°44' W 118°16'0 0.0
2014-Sep-28 01:18N 33°44' W 118°16'0 0.0
2014-Sep-28 00:33N 33°44' W 118°16'0 0.0
2014-Sep-27 23:33N 33°44' W 118°16'2 0.3
2014-Sep-27 16:20N 33°42' W 118°15'2 2.5
2014-Sep-27 15:33N 33°44' W 118°16'0 0.0
2014-Sep-27 14:32N 33°44' W 118°16'0 0.0
2014-Sep-27 13:31N 33°44' W 118°16'0 0.0
2014-Sep-27 12:33N 33°44' W 118°16'0 0.0
2014-Sep-27 11:33N 33°44' W 118°16'0 0.0
2014-Sep-27 00:32N 33°44' W 118°16'12 5.5
2014-Sep-26 22:26N 33°35' W 118°08'0 0.0
2014-Sep-26 21:33N 33°35' W 118°08'0 0.0
2014-Sep-26 20:33N 33°35' W 118°08'0 0.0
2014-Sep-26 19:33N 33°35' W 118°08'0 0.0
2014-Sep-26 18:33N 33°35' W 118°08'1 1.0
2014-Sep-26 17:21N 33°34' W 118°07'5 6.2
2014-Sep-26 16:33N 33°38' W 118°11'8 7.8
2014-Sep-26 15:33N 33°44' W 118°16'0 0.0
2014-Sep-26 14:33N 33°44' W 118°16'0 0.4
2014-Sep-26 13:33N 33°44' W 118°16'0 0.0
2014-Sep-26 12:32N 33°44' W 118°16'0 0.0
2014-Sep-26 11:29N 33°44' W 118°16'4 4.1
2014-Sep-26 10:28N 33°41' W 118°14'7 8.3
2014-Sep-26 09:33N 33°35' W 118°08'0 0.0
2014-Sep-26 08:33N 33°35' W 118°08'0 0.0
2014-Sep-26 07:33N 33°35' W 118°08'0 0.0
2014-Sep-26 06:33N 33°35' W 118°08'0 0.0
2014-Sep-26 05:33N 33°35' W 118°08'0 0.0
2014-Sep-26 04:33N 33°35' W 118°08'0 0.1
2014-Sep-26 03:29N 33°35' W 118°08'1010.4
2014-Sep-26 02:33N 33°43' W 118°15'2 2.0
2014-Sep-26 01:33N 33°44' W 118°16'0 0.0
2014-Sep-26 00:33N 33°44' W 118°16'0 0.0
2014-Sep-25 23:33N 33°44' W 118°16'2 1.6
2014-Sep-25 22:33N 33°43' W 118°15'8 8.4
2014-Sep-25 21:33N 33°36' W 118°09'2 1.7
2014-Sep-25 20:33N 33°35' W 118°08'0 0.0
2014-Sep-25 19:33N 33°35' W 118°08'1 1.2
2014-Sep-25 18:33N 33°34' W 118°07'0 0.0
2014-Sep-25 17:33N 33°34' W 118°07'0 0.0
2014-Sep-25 16:33N 33°34' W 118°07'0 0.0
2014-Sep-25 15:33N 33°34' W 118°07'8 7.7
2014-Sep-25 14:33N 33°40' W 118°13'5 5.2
2014-Sep-25 13:33N 33°44' W 118°16'0 0.0
2014-Sep-25 12:33N 33°44' W 118°16'0 0.0
2014-Sep-25 11:33N 33°44' W 118°16'5 5.2
2014-Sep-25 10:33N 33°40' W 118°12'6 6.4
2014-Sep-25 09:33N 33°35' W 118°08'0 0.2
2014-Sep-25 08:33N 33°35' W 118°08'0 0.0
2014-Sep-25 07:33N 33°35' W 118°08'0 0.0
2014-Sep-25 06:33N 33°35' W 118°08'0 0.0
2014-Sep-25 05:33N 33°35' W 118°08'0 0.0
2014-Sep-25 04:33N 33°35' W 118°08'0 0.0
2014-Sep-25 03:31N 33°35' W 118°08'0 0.1
2014-Sep-25 02:33N 33°35' W 118°08'9 9.2
2014-Sep-25 01:33N 33°42' W 118°14'3 2.5
2014-Sep-25 00:33N 33°44' W 118°16'1 0.9
2014-Sep-24 23:33N 33°43' W 118°16'9 9.4
2014-Sep-24 22:33N 33°36' W 118°09'1 1.3
2014-Sep-24 21:33N 33°35' W 118°08'0 0.1
2014-Sep-24 20:33N 33°35' W 118°08'0 0.0
2014-Sep-24 19:33N 33°35' W 118°08'0 0.0
2014-Sep-24 18:33N 33°35' W 118°08'0 0.0
2014-Sep-24 17:33N 33°35' W 118°08'1 1.3
2014-Sep-24 16:33N 33°34' W 118°07'5 4.6
2014-Sep-24 15:33N 33°37' W 118°10'8 8.2
2014-Sep-24 14:33N 33°44' W 118°16'0 0.0
2014-Sep-24 13:33N 33°44' W 118°16'0 0.0
2014-Sep-24 12:33N 33°44' W 118°16'0 0.0
2014-Sep-24 11:33N 33°44' W 118°16'1 1.1
2014-Sep-24 10:33N 33°43' W 118°16'1010.3
2014-Sep-24 09:33N 33°35' W 118°08'0 0.3
2014-Sep-24 08:33N 33°35' W 118°08'0 0.2
2014-Sep-24 07:33N 33°35' W 118°08'0 0.2
2014-Sep-24 06:33N 33°35' W 118°08'0 0.0
2014-Sep-24 05:33N 33°35' W 118°08'0 0.0
2014-Sep-24 04:33N 33°35' W 118°08'5 5.1
2014-Sep-24 03:33N 33°39' W 118°11'7 6.5
2014-Sep-24 02:33N 33°44' W 118°16'0 0.0
2014-Sep-24 01:33N 33°44' W 118°16'0 0.0
2014-Sep-24 00:33N 33°44' W 118°16'1 0.9
2014-Sep-23 23:33N 33°43' W 118°16'9 8.9
2014-Sep-23 22:33N 33°37' W 118°09'2 1.9
2014-Sep-23 21:33N 33°35' W 118°08'0 0.0
2014-Sep-23 20:33N 33°35' W 118°08'0 0.0
2014-Sep-23 19:33N 33°35' W 118°08'0 0.0
2014-Sep-23 18:33N 33°35' W 118°08'0 0.0
2014-Sep-23 17:33N 33°35' W 118°08'1 1.3
2014-Sep-23 16:33N 33°34' W 118°07'5 4.9
2014-Sep-23 15:33N 33°38' W 118°10'8 7.8
2014-Sep-23 14:33N 33°44' W 118°16'0 0.0
2014-Sep-23 13:33N 33°44' W 118°16'0 0.4
2014-Sep-23 12:33N 33°44' W 118°16'2 2.1
2014-Sep-23 11:33N 33°42' W 118°15'10 9.6
2014-Sep-23 10:33N 33°35' W 118°08'0 0.0
2014-Sep-23 09:19N 33°35' W 118°08'0 0.0
2014-Sep-23 08:33N 33°35' W 118°08'0 0.0
2014-Sep-23 07:33N 33°35' W 118°08'0 0.2
2014-Sep-23 06:33N 33°35' W 118°08'0 0.2
2014-Sep-23 05:33N 33°35' W 118°08'0 0.0
2014-Sep-23 04:33N 33°35' W 118°08'0 0.0
2014-Sep-23 03:33N 33°35' W 118°08'1 0.6
2014-Sep-23 02:33N 33°35' W 118°08'1110.5
2014-Sep-23 01:33N 33°43' W 118°16'1 0.7
2014-Sep-23 00:33N 33°44' W 118°16'0 0.0
2014-Sep-22 23:33N 33°44' W 118°16'1 1.1
2014-Sep-22 22:25N 33°43' W 118°16'7 8.1
2014-Sep-22 21:33N 33°38' W 118°10'3 3.4
2014-Sep-22 20:33N 33°35' W 118°08'1 1.2
2014-Sep-22 19:33N 33°34' W 118°07'0 0.0
2014-Sep-22 18:32N 33°34' W 118°07'0 0.0
2014-Sep-22 17:33N 33°34' W 118°07'0 0.0
2014-Sep-22 16:28N 33°34' W 118°07'0 0.0
2014-Sep-22 15:33N 33°34' W 118°07'4 3.7
2014-Sep-22 14:26N 33°37' W 118°10'8 9.3
2014-Sep-22 13:31N 33°44' W 118°16'0 0.4
2014-Sep-22 12:30N 33°44' W 118°16'0 0.0
2014-Sep-22 11:33N 33°44' W 118°16'0 0.0
2014-Sep-22 10:33N 33°44' W 118°16'0 0.0
2014-Sep-22 09:33N 33°44' W 118°16'0 0.0
2014-Sep-22 08:33N 33°44' W 118°16'0 0.0
2014-Sep-22 07:28N 33°44' W 118°16'0 0.0
2014-Sep-22 06:33N 33°44' W 118°16'4 4.1
2014-Sep-22 05:33N 33°41' W 118°13'9 8.6
2014-Sep-22 04:32N 33°34' W 118°07'0 0.1
2014-Sep-22 03:33N 33°34' W 118°07'0 0.0
2014-Sep-22 02:10N 33°34' W 118°07'13 2.7
2014-Sep-21 21:20N 33°44' W 118°16'0 0.0
2014-Sep-21 20:11N 33°44' W 118°16'0 0.0
2014-Sep-21 19:23N 33°44' W 118°16'0 0.0
2014-Sep-21 18:26N 33°44' W 118°16'0 0.0
2014-Sep-21 17:20N 33°44' W 118°16'0 0.0
2014-Sep-21 15:29N 33°44' W 118°16'0 0.0
2014-Sep-21 14:29N 33°44' W 118°16'0 0.0
2014-Sep-21 13:32N 33°44' W 118°16'0 0.0
2014-Sep-21 12:20N 33°44' W 118°16'0 0.0
2014-Sep-21 11:31N 33°44' W 118°16'  
Track history (hours):
 
Tides and Currents Weather Stations Pressure Air Temp Water Temp Dewpoint Dewpoint Depression Visibility Wind Speed Wind Dir Waves Ship Positions

Kenneth Carl

Owner: So. Cal. Ship Services, Inc., San Pedro, CA. More information available from US FCC via Universal Licensing System and Coast Guard Vessel Documentation Center.

Last reported at 2014-Oct-01 05:33 UTC. Time now 2014-Oct-01 06:06 UTC.
Position N 33°35' W 118°08'.

Length 31 m; draft 3 m.

Type: Ship. MMSI: 367492920.

Date/timePositionNaut miles runAvg speedWind from/ knotsBaromVisibWave heightAir tempDewpointWater temp
2014-Oct-01 05:33N 33°35' W 118°08'0 0.0
2014-Oct-01 04:33N 33°35' W 118°08'0 0.2
2014-Oct-01 03:33N 33°35' W 118°08'4 4.3
2014-Oct-01 02:33N 33°38' W 118°11'7 7.3
2014-Oct-01 01:33N 33°44' W 118°16'1 0.7
2014-Oct-01 00:32N 33°43' W 118°16'9 9.2
2014-Sep-30 23:33N 33°37' W 118°09'2 1.9
2014-Sep-30 22:33N 33°35' W 118°08'0 0.1
2014-Sep-30 21:33N 33°35' W 118°08'1 1.1
2014-Sep-30 20:33N 33°34' W 118°07'0 0.2
2014-Sep-30 19:33N 33°34' W 118°07'0 0.0
2014-Sep-30 18:33N 33°34' W 118°07'12 5.1
2014-Sep-30 16:14N 33°43' W 118°16'1 0.6
2014-Sep-30 14:33N 33°44' W 118°16'0 0.0
2014-Sep-30 13:33N 33°44' W 118°16'0 0.0
2014-Sep-30 12:33N 33°44' W 118°16'4 3.9
2014-Sep-30 11:33N 33°41' W 118°13'8 3.8
2014-Sep-30 09:33N 33°35' W 118°08'0 0.1
2014-Sep-30 08:30N 33°35' W 118°08'0 0.0
2014-Sep-30 07:33N 33°35' W 118°08'1 1.2
2014-Sep-30 06:33N 33°34' W 118°07'1 1.2
2014-Sep-30 05:33N 33°35' W 118°08'0 0.0
2014-Sep-30 03:33N 33°35' W 118°08'7 6.6
2014-Sep-30 02:30N 33°40' W 118°13'5 5.0
2014-Sep-30 01:33N 33°44' W 118°16'0 0.0
2014-Sep-30 00:33N 33°44' W 118°16'1 0.5
2014-Sep-29 23:32N 33°44' W 118°16'9 9.3
2014-Sep-29 22:33N 33°37' W 118°09'2 2.1
2014-Sep-29 21:32N 33°35' W 118°08'0 0.0
2014-Sep-29 20:19N 33°35' W 118°08'11 2.7
2014-Sep-29 16:15N 33°43' W 118°16'1 0.9
2014-Sep-29 15:30N 33°44' W 118°16'0 0.4
2014-Sep-29 14:33N 33°44' W 118°16'0 0.1
2014-Sep-29 08:31N 33°44' W 118°16'2 2.5
2014-Sep-29 07:32N 33°42' W 118°15'2 0.4
2014-Sep-29 01:23N 33°44' W 118°16'0 0.4
2014-Sep-29 00:28N 33°44' W 118°16'2 0.3
2014-Sep-28 17:12N 33°42' W 118°15'2 1.2
2014-Sep-28 15:33N 33°44' W 118°16'0 0.0
2014-Sep-28 14:15N 33°44' W 118°16'0 0.0
2014-Sep-28 13:28N 33°44' W 118°16'0 0.0
2014-Sep-28 11:21N 33°44' W 118°16'0 0.0
2014-Sep-28 10:31N 33°44' W 118°16'0 0.0
2014-Sep-28 01:18N 33°44' W 118°16'0 0.0
2014-Sep-28 00:33N 33°44' W 118°16'0 0.0
2014-Sep-27 23:33N 33°44' W 118°16'2 0.3
2014-Sep-27 16:20N 33°42' W 118°15'2 2.5
2014-Sep-27 15:33N 33°44' W 118°16'0 0.0
2014-Sep-27 14:32N 33°44' W 118°16'0 0.0
2014-Sep-27 13:31N 33°44' W 118°16'0 0.0
2014-Sep-27 12:33N 33°44' W 118°16'0 0.0
2014-Sep-27 11:33N 33°44' W 118°16'0 0.0
2014-Sep-27 00:32N 33°44' W 118°16'12 5.5
2014-Sep-26 22:26N 33°35' W 118°08'0 0.0
2014-Sep-26 21:33N 33°35' W 118°08'0 0.0
2014-Sep-26 20:33N 33°35' W 118°08'0 0.0
2014-Sep-26 19:33N 33°35' W 118°08'0 0.0
2014-Sep-26 18:33N 33°35' W 118°08'1 1.0
2014-Sep-26 17:21N 33°34' W 118°07'5 6.2
2014-Sep-26 16:33N 33°38' W 118°11'8 7.8
2014-Sep-26 15:33N 33°44' W 118°16'0 0.0
2014-Sep-26 14:33N 33°44' W 118°16'0 0.4
2014-Sep-26 13:33N 33°44' W 118°16'0 0.0
2014-Sep-26 12:32N 33°44' W 118°16'0 0.0
2014-Sep-26 11:29N 33°44' W 118°16'4 4.1
2014-Sep-26 10:28N 33°41' W 118°14'7 8.3
2014-Sep-26 09:33N 33°35' W 118°08'0 0.0
2014-Sep-26 08:33N 33°35' W 118°08'0 0.0
2014-Sep-26 07:33N 33°35' W 118°08'0 0.0
2014-Sep-26 06:33N 33°35' W 118°08'0 0.0
2014-Sep-26 05:33N 33°35' W 118°08'0 0.0
2014-Sep-26 04:33N 33°35' W 118°08'0 0.1
2014-Sep-26 03:29N 33°35' W 118°08'1010.4
2014-Sep-26 02:33N 33°43' W 118°15'2 2.0
2014-Sep-26 01:33N 33°44' W 118°16'0 0.0
2014-Sep-26 00:33N 33°44' W 118°16'0 0.0
2014-Sep-25 23:33N 33°44' W 118°16'2 1.6
2014-Sep-25 22:33N 33°43' W 118°15'8 8.4
2014-Sep-25 21:33N 33°36' W 118°09'2 1.7
2014-Sep-25 20:33N 33°35' W 118°08'0 0.0
2014-Sep-25 19:33N 33°35' W 118°08'1 1.2
2014-Sep-25 18:33N 33°34' W 118°07'0 0.0
2014-Sep-25 17:33N 33°34' W 118°07'0 0.0
2014-Sep-25 16:33N 33°34' W 118°07'0 0.0
2014-Sep-25 15:33N 33°34' W 118°07'8 7.7
2014-Sep-25 14:33N 33°40' W 118°13'5 5.2
2014-Sep-25 13:33N 33°44' W 118°16'0 0.0
2014-Sep-25 12:33N 33°44' W 118°16'0 0.0
2014-Sep-25 11:33N 33°44' W 118°16'5 5.2
2014-Sep-25 10:33N 33°40' W 118°12'6 6.4
2014-Sep-25 09:33N 33°35' W 118°08'0 0.2
2014-Sep-25 08:33N 33°35' W 118°08'0 0.0
2014-Sep-25 07:33N 33°35' W 118°08'0 0.0
2014-Sep-25 06:33N 33°35' W 118°08'0 0.0
2014-Sep-25 05:33N 33°35' W 118°08'0 0.0
2014-Sep-25 04:33N 33°35' W 118°08'0 0.0
2014-Sep-25 03:31N 33°35' W 118°08'0 0.1
2014-Sep-25 02:33N 33°35' W 118°08'9 9.2
2014-Sep-25 01:33N 33°42' W 118°14'3 2.5
2014-Sep-25 00:33N 33°44' W 118°16'1 0.9
2014-Sep-24 23:33N 33°43' W 118°16'9 9.4
2014-Sep-24 22:33N 33°36' W 118°09'1 1.3
2014-Sep-24 21:33N 33°35' W 118°08'0 0.1
2014-Sep-24 20:33N 33°35' W 118°08'0 0.0
2014-Sep-24 19:33N 33°35' W 118°08'0 0.0
2014-Sep-24 18:33N 33°35' W 118°08'0 0.0
2014-Sep-24 17:33N 33°35' W 118°08'1 1.3
2014-Sep-24 16:33N 33°34' W 118°07'5 4.6
2014-Sep-24 15:33N 33°37' W 118°10'8 8.2
2014-Sep-24 14:33N 33°44' W 118°16'0 0.0
2014-Sep-24 13:33N 33°44' W 118°16'0 0.0
2014-Sep-24 12:33N 33°44' W 118°16'0 0.0
2014-Sep-24 11:33N 33°44' W 118°16'1 1.1
2014-Sep-24 10:33N 33°43' W 118°16'1010.3
2014-Sep-24 09:33N 33°35' W 118°08'0 0.3
2014-Sep-24 08:33N 33°35' W 118°08'0 0.2
2014-Sep-24 07:33N 33°35' W 118°08'0 0.2
2014-Sep-24 06:33N 33°35' W 118°08'0 0.0
2014-Sep-24 05:33N 33°35' W 118°08'0 0.0
2014-Sep-24 04:33N 33°35' W 118°08'5 5.1
2014-Sep-24 03:33N 33°39' W 118°11'7 6.5
2014-Sep-24 02:33N 33°44' W 118°16'0 0.0
2014-Sep-24 01:33N 33°44' W 118°16'0 0.0
2014-Sep-24 00:33N 33°44' W 118°16'1 0.9
2014-Sep-23 23:33N 33°43' W 118°16'9 8.9
2014-Sep-23 22:33N 33°37' W 118°09'2 1.9
2014-Sep-23 21:33N 33°35' W 118°08'0 0.0
2014-Sep-23 20:33N 33°35' W 118°08'0 0.0
2014-Sep-23 19:33N 33°35' W 118°08'0 0.0
2014-Sep-23 18:33N 33°35' W 118°08'0 0.0
2014-Sep-23 17:33N 33°35' W 118°08'1 1.3
2014-Sep-23 16:33N 33°34' W 118°07'5 4.9
2014-Sep-23 15:33N 33°38' W 118°10'8 7.8
2014-Sep-23 14:33N 33°44' W 118°16'0 0.0
2014-Sep-23 13:33N 33°44' W 118°16'0 0.4
2014-Sep-23 12:33N 33°44' W 118°16'2 2.1
2014-Sep-23 11:33N 33°42' W 118°15'10 9.6
2014-Sep-23 10:33N 33°35' W 118°08'0 0.0
2014-Sep-23 09:19N 33°35' W 118°08'0 0.0
2014-Sep-23 08:33N 33°35' W 118°08'0 0.0
2014-Sep-23 07:33N 33°35' W 118°08'0 0.2
2014-Sep-23 06:33N 33°35' W 118°08'0 0.2
2014-Sep-23 05:33N 33°35' W 118°08'0 0.0
2014-Sep-23 04:33N 33°35' W 118°08'0 0.0
2014-Sep-23 03:33N 33°35' W 118°08'1 0.6
2014-Sep-23 02:33N 33°35' W 118°08'1110.5
2014-Sep-23 01:33N 33°43' W 118°16'1 0.7
2014-Sep-23 00:33N 33°44' W 118°16'0 0.0
2014-Sep-22 23:33N 33°44' W 118°16'1 1.1
2014-Sep-22 22:25N 33°43' W 118°16'7 8.1
2014-Sep-22 21:33N 33°38' W 118°10'3 3.4
2014-Sep-22 20:33N 33°35' W 118°08'1 1.2
2014-Sep-22 19:33N 33°34' W 118°07'0 0.0
2014-Sep-22 18:32N 33°34' W 118°07'0 0.0
2014-Sep-22 17:33N 33°34' W 118°07'0 0.0
2014-Sep-22 16:28N 33°34' W 118°07'0 0.0
2014-Sep-22 15:33N 33°34' W 118°07'4 3.7
2014-Sep-22 14:26N 33°37' W 118°10'8 9.3
2014-Sep-22 13:31N 33°44' W 118°16'0 0.4
2014-Sep-22 12:30N 33°44' W 118°16'0 0.0
2014-Sep-22 11:33N 33°44' W 118°16'0 0.0
2014-Sep-22 10:33N 33°44' W 118°16'0 0.0
2014-Sep-22 09:33N 33°44' W 118°16'0 0.0
2014-Sep-22 08:33N 33°44' W 118°16'0 0.0
2014-Sep-22 07:28N 33°44' W 118°16'0 0.0
2014-Sep-22 06:33N 33°44' W 118°16'4 4.1
2014-Sep-22 05:33N 33°41' W 118°13'9 8.6
2014-Sep-22 04:32N 33°34' W 118°07'0 0.1
2014-Sep-22 03:33N 33°34' W 118°07'0 0.0
2014-Sep-22 02:10N 33°34' W 118°07'13 2.7
2014-Sep-21 21:20N 33°44' W 118°16'0 0.0
2014-Sep-21 20:11N 33°44' W 118°16'0 0.0
2014-Sep-21 19:23N 33°44' W 118°16'0 0.0
2014-Sep-21 18:26N 33°44' W 118°16'0 0.0
2014-Sep-21 17:20N 33°44' W 118°16'0 0.0
2014-Sep-21 15:29N 33°44' W 118°16'0 0.0
2014-Sep-21 14:29N 33°44' W 118°16'0 0.0
2014-Sep-21 13:32N 33°44' W 118°16'0 0.0
2014-Sep-21 12:20N 33°44' W 118°16'0 0.0
2014-Sep-21 11:31N 33°44' W 118°16'  

Dump ship's entire track history